Terminal Aerodrome Forecast
Issued by NWS

Home | Current Version | Previous Version | Text Only | Print | Product List | Glossary On
Versions: 1 2 3 4 5 6 7 8 9 10 11 12 13 14 15 16 17 18 19
000
FTUS41 KBTV 010532
TAFSLK
TAF
KSLK 010532Z 0106/0206 00000KT 1/2SM FG VV003
     FM011200 00000KT P6SM SKC
     FM011600 23006KT P6SM FEW250
     FM020000 00000KT P6SM FEW200=

USA.gov is the U.S. government's official web portal to all federal, state and local government web resources and services.